Time;durP1;ratioP1;P1;durP2;ratioP2;P2;SDS_P1;SDS_P2;PMS_P1;PMS_P2;Temp;Humidity;BMP_temperature;BMP_pressure;BME280_temperature;BME280_humidity;BME280_pressure;Samples;Min_cycle;Max_cycle;Signal;HPM_P1;HPM_P2
2022/04/03 08:33:40;;;;;;;1.07;0.40;;;14.40;66.00;;;;;;4199057;23;20584;-67
2022/04/03 08:36:07;;;;;;;1.40;0.50;;;14.40;68.10;;;;;;4952714;29;20200;-69
2022/04/03 08:38:34;;;;;;;1.23;0.40;;;14.90;67.10;;;;;;4947846;29;20220;-68
2022/04/03 08:41:01;;;;;;;1.80;0.47;;;15.00;66.00;;;;;;4931953;28;20731;-68
2022/04/03 08:43:28;;;;;;;0.90;0.40;;;14.30;66.20;;;;;;4926086;29;20260;-68
2022/04/03 08:45:55;;;;;;;0.90;0.40;;;13.90;67.40;;;;;;4925165;29;20208;-67
2022/04/03 08:48:23;;;;;;;0.97;0.40;;;12.70;69.10;;;;;;4922241;29;20216;-67
2022/04/03 08:50:52;;;;;;;0.70;0.50;;;12.80;71.10;;;;;;4927622;29;20221;-68
2022/04/03 08:53:23;;;;;;;0.73;0.43;;;12.70;70.50;;;;;;4934745;29;20252;-67
2022/04/03 08:55:50;;;;;;;0.67;0.50;;;13.00;70.20;;;;;;4934574;29;20613;-67
2022/04/03 08:58:18;;;;;;;0.73;0.33;;;13.90;70.50;;;;;;4934904;29;20224;-67
2022/04/03 09:00:45;;;;;;;1.90;0.50;;;13.70;70.40;;;;;;4935006;29;20246;-67
2022/04/03 09:03:13;;;;;;;0.70;0.40;;;13.20;68.90;;;;;;4934940;29;20248;-67
2022/04/03 09:05:41;;;;;;;2.47;0.40;;;13.00;69.40;;;;;;4934954;29;20209;-67
2022/04/03 09:08:10;;;;;;;1.20;0.47;;;12.90;69.60;;;;;;4935143;29;20216;-67
2022/04/03 09:10:38;;;;;;;0.80;0.50;;;12.80;69.90;;;;;;4934926;29;20649;-67
2022/04/03 09:13:06;;;;;;;1.03;0.40;;;12.90;71.90;;;;;;4935138;29;20241;-68
2022/04/03 09:15:33;;;;;;;3.23;0.40;;;13.60;69.10;;;;;;4935289;29;20213;-70
2022/04/03 09:18:02;;;;;;;0.73;0.50;;;13.90;69.10;;;;;;4934862;29;20205;-69
2022/04/03 09:20:31;;;;;;;0.70;0.50;;;13.70;68.60;;;;;;4934115;29;20227;-68
2022/04/03 09:23:00;;;;;;;2.57;0.47;;;13.60;68.20;;;;;;4934107;29;20310;-69
2022/04/03 09:25:29;;;;;;;0.83;0.47;;;13.20;69.10;;;;;;4933491;29;20590;-69
2022/04/03 09:27:58;;;;;;;0.50;0.40;;;12.60;68.50;;;;;;4926168;29;20225;-69
2022/04/03 09:30:30;;;;;;;1.00;0.60;;;11.40;71.90;;;;;;4920179;29;20902;-69
2022/04/03 09:32:59;;;;;;;0.83;0.40;;;11.20;72.40;;;;;;4933970;29;20232;-69
2022/04/03 09:35:27;;;;;;;2.60;0.50;;;10.90;73.30;;;;;;4932125;29;20215;-69
2022/04/03 09:38:14;;;;;;;3.83;0.50;;;10.60;73.80;;;;;;4924478;29;20209;-69
2022/04/03 09:40:44;;;;;;;3.90;1.13;;;10.20;75.40;;;;;;4924211;29;20232;-69
2022/04/03 09:43:16;;;;;;;1.90;0.50;;;9.90;77.30;;;;;;4935437;29;20219;-69
2022/04/03 09:45:51;;;;;;;15.97;5.63;;;10.00;75.10;;;;;;4937845;29;20215;-70
2022/04/03 09:48:22;;;;;;;1.40;0.50;;;10.10;77.20;;;;;;4937682;29;20307;-69
2022/04/03 09:50:57;;;;;;;0.70;0.40;;;9.80;77.20;;;;;;4937069;29;20229;-69
2022/04/03 09:53:24;;;;;;;2.53;0.60;;;9.40;78.00;;;;;;4937472;29;20247;-72
2022/04/03 09:55:52;;;;;;;2.20;0.60;;;9.30;81.70;;;;;;4937971;29;20213;-68
2022/04/03 09:58:19;;;;;;;1.10;0.57;;;9.40;80.30;;;;;;4930390;29;20216;-69
2022/04/03 10:00:46;;;;;;;1.13;0.50;;;9.30;82.10;;;;;;4922682;29;20228;-69
2022/04/03 10:03:14;;;;;;;2.50;0.67;;;9.30;79.90;;;;;;4923758;29;20206;-68
2022/04/03 10:05:43;;;;;;;0.80;0.40;;;9.40;81.20;;;;;;4918558;29;20213;-69
2022/04/03 10:08:11;;;;;;;1.93;0.60;;;9.50;77.00;;;;;;4924438;29;20202;-68
2022/04/03 10:10:38;;;;;;;1.87;0.50;;;9.60;76.50;;;;;;4924654;29;20721;-69
2022/04/03 10:13:09;;;;;;;0.80;0.50;;;9.70;77.50;;;;;;4918653;29;20271;-69
2022/04/03 10:15:36;;;;;;;3.63;0.40;;;9.70;75.00;;;;;;4918477;29;20210;-69
2022/04/03 10:18:04;;;;;;;1.80;0.50;;;9.50;76.60;;;;;;4918233;29;20214;-68
2022/04/03 10:20:31;;;;;;;0.70;0.50;;;9.00;77.20;;;;;;4918183;29;20237;-69
2022/04/03 10:23:02;;;;;;;1.70;0.60;;;8.90;79.10;;;;;;4924750;29;20565;-68
2022/04/03 10:25:31;;;;;;;1.60;0.53;;;9.10;79.80;;;;;;4936582;29;20205;-69
2022/04/03 10:28:02;;;;;;;0.90;0.60;;;9.40;77.70;;;;;;4937217;29;20252;-68
2022/04/03 10:30:38;;;;;;;0.70;0.50;;;9.60;76.00;;;;;;4937092;29;20225;-69
2022/04/03 10:33:06;;;;;;;1.33;0.90;;;9.50;76.70;;;;;;4937131;29;20232;-70
2022/04/03 10:35:35;;;;;;;1.67;0.60;;;9.40;76.90;;;;;;4934533;29;20215;-72
2022/04/03 10:38:04;;;;;;;1.00;0.50;;;9.60;77.70;;;;;;4935241;29;20209;-70
2022/04/03 10:40:36;;;;;;;1.13;0.87;;;9.70;78.70;;;;;;4927630;29;20222;-70
2022/04/03 10:43:06;;;;;;;0.90;0.70;;;9.80;76.60;;;;;;4929407;29;20216;-70
2022/04/03 10:45:34;;;;;;;4.97;0.80;;;9.70;75.50;;;;;;4931316;29;20296;-70
2022/04/03 10:48:28;;;;;;;1.33;0.90;;;9.70;77.10;;;;;;4934363;29;20686;-70
2022/04/03 10:51:04;;;;;;;1.23;0.80;;;10.10;75.20;;;;;;4934704;29;20585;-68
2022/04/03 10:53:32;;;;;;;1.20;1.10;;;10.10;76.20;;;;;;4935828;29;20236;-70
2022/04/03 10:56:02;;;;;;;1.80;1.20;;;10.30;72.50;;;;;;4936634;29;20208;-70
2022/04/03 10:58:43;;;;;;;4.20;1.40;;;10.30;73.30;;;;;;4935963;29;20248;-70
2022/04/03 11:01:24;;;;;;;1.30;0.90;;;10.30;74.30;;;;;;4936485;29;20225;-70
2022/04/03 11:04:00;;;;;;;1.70;1.10;;;10.30;75.40;;;;;;4936350;29;20219;-69
2022/04/03 11:06:36;;;;;;;1.50;1.00;;;10.50;75.70;;;;;;4936012;29;20250;-70
2022/04/03 11:09:11;;;;;;;2.80;1.20;;;10.50;73.20;;;;;;4935333;29;20511;-70
2022/04/03 11:11:49;;;;;;;3.47;1.40;;;10.60;72.50;;;;;;4935595;29;20220;-69
2022/04/03 11:14:51;;;;;;;1.27;1.10;;;10.40;73.10;;;;;;4936288;29;20246;-70
2022/04/03 11:17:19;;;;;;;1.30;0.97;;;10.00;74.20;;;;;;4935868;29;20680;-70
2022/04/03 11:19:48;;;;;;;1.70;1.10;;;10.10;73.70;;;;;;4936154;29;20216;-68
2022/04/03 11:22:17;;;;;;;1.60;1.30;;;10.00;70.60;;;;;;4935935;29;20244;-69
2022/04/03 11:24:44;;;;;;;1.50;1.10;;;9.70;72.30;;;;;;4936206;29;20205;-70
2022/04/03 11:27:12;;;;;;;2.07;1.50;;;9.50;73.70;;;;;;4935793;29;20201;-69
2022/04/03 11:29:39;;;;;;;1.43;1.00;;;9.90;73.70;;;;;;4936099;29;20566;-69
2022/04/03 11:32:08;;;;;;;1.63;1.10;;;10.10;72.90;;;;;;4935701;29;20216;-68
2022/04/03 11:34:35;;;;;;;1.30;1.07;;;10.40;72.00;;;;;;4935275;29;20251;-69
2022/04/03 11:37:08;;;;;;;1.53;1.20;;;10.60;72.50;;;;;;4935948;29;20232;-70
2022/04/03 11:39:36;;;;;;;2.17;1.10;;;10.50;71.80;;;;;;4936097;29;20209;-68
2022/04/03 11:42:05;;;;;;;5.63;1.50;;;10.60;71.50;;;;;;4935257;29;20200;-69
2022/04/03 11:44:34;;;;;;;1.67;1.10;;;10.80;73.70;;;;;;4935066;29;20301;-69
2022/04/03 11:47:01;;;;;;;1.60;1.30;;;10.90;72.70;;;;;;4930758;29;20256;-68
2022/04/03 11:49:29;;;;;;;1.30;1.10;;;10.90;70.40;;;;;;4935108;29;20205;-70
2022/04/03 11:52:03;;;;;;;1.73;1.30;;;10.60;69.70;;;;;;4930019;29;20225;-70
2022/04/03 11:54:31;;;;;;;1.97;1.30;;;10.30;70.60;;;;;;4925423;29;20315;-70
2022/04/03 11:57:02;;;;;;;2.17;1.33;;;10.10;70.60;;;;;;4923581;29;20201;-69
2022/04/03 11:59:32;;;;;;;1.47;1.20;;;10.10;71.00;;;;;;4922359;29;20233;-68
2022/04/03 12:01:59;;;;;;;1.70;1.20;;;10.30;71.40;;;;;;4922085;29;20217;-69
2022/04/03 12:04:26;;;;;;;1.70;1.27;;;10.30;69.70;;;;;;4924320;29;20224;-68
2022/04/03 12:06:58;;;;;;;3.40;1.40;;;10.60;70.60;;;;;;4928618;29;20361;-68
2022/04/03 12:09:27;;;;;;;1.20;1.00;;;10.60;70.60;;;;;;4934238;29;20205;-68
2022/04/03 12:11:56;;;;;;;1.90;1.40;;;10.80;69.60;;;;;;4930440;29;20271;-68
2022/04/03 12:14:25;;;;;;;2.07;1.30;;;10.70;70.20;;;;;;4924615;29;20236;-69
2022/04/03 12:16:58;;;;;;;1.53;1.30;;;11.00;70.50;;;;;;4918759;29;20210;-68
2022/04/03 12:19:25;;;;;;;1.50;1.30;;;11.00;69.90;;;;;;4916040;29;20205;-68
2022/04/03 12:21:56;;;;;;;1.77;1.20;;;11.00;71.80;;;;;;4916211;29;20597;-68
2022/04/03 12:24:24;;;;;;;3.27;1.40;;;11.20;72.50;;;;;;4916323;29;20209;-68
2022/04/03 12:26:54;;;;;;;1.30;1.10;;;11.20;72.50;;;;;;4922697;29;20686;-69
2022/04/03 12:29:23;;;;;;;2.23;1.53;;;11.20;72.10;;;;;;4928199;29;20209;-69
2022/04/03 12:31:59;;;;;;;2.50;1.17;;;11.20;71.20;;;;;;4918929;29;20275;-69
2022/04/03 12:34:26;;;;;;;2.00;1.07;;;11.20;72.20;;;;;;4929895;29;20592;-69
2022/04/03 12:36:55;;;;;;;1.60;1.20;;;11.30;71.60;;;;;;4924798;29;20205;-69
2022/04/03 12:39:40;;;;;;;2.93;0.90;;;11.40;70.80;;;;;;4935444;29;20661;-68
2022/04/03 12:42:15;;;;;;;3.40;1.10;;;11.60;70.60;;;;;;4923160;29;20198;-69
2022/04/03 12:44:53;;;;;;;2.53;1.67;;;11.40;71.60;;;;;;4927474;29;20211;-68
2022/04/03 12:47:21;;;;;;;2.03;1.23;;;11.70;70.90;;;;;;4931610;29;20204;-68
2022/04/03 12:49:50;;;;;;;2.47;1.40;;;11.80;69.90;;;;;;4934744;29;20208;-67
2022/04/03 12:52:21;;;;;;;2.23;1.40;;;11.60;70.80;;;;;;4931892;29;20197;-69
2022/04/03 12:54:47;;;;;;;1.63;1.13;;;11.80;70.00;;;;;;4922183;29;20233;-69
2022/04/03 13:00:17;;;;;;;1.90;0.93;;;11.70;69.90;;;;;;4920018;29;20231;-68
2022/04/03 13:02:44;;;;;;;1.83;1.00;;;11.70;70.10;;;;;;4934499;29;20216;-69
2022/04/03 13:05:14;;;;;;;1.67;1.10;;;11.50;70.20;;;;;;4934204;29;20253;-68
2022/04/03 13:07:41;;;;;;;1.33;0.80;;;11.70;71.60;;;;;;4934218;29;20213;-69
2022/04/03 13:10:15;;;;;;;0.93;0.77;;;11.90;71.30;;;;;;4935981;29;20239;-68
2022/04/03 13:12:42;;;;;;;0.93;0.80;;;11.90;72.50;;;;;;4936668;29;20242;-67
2022/04/03 13:15:10;;;;;;;0.90;0.80;;;12.10;72.20;;;;;;4927630;29;20232;-68
2022/04/03 13:17:37;;;;;;;1.53;0.90;;;12.50;70.40;;;;;;4926280;29;20568;-69
2022/04/03 13:20:05;;;;;;;0.80;0.70;;;12.30;68.50;;;;;;4936713;29;20237;-69
2022/04/03 13:22:32;;;;;;;1.20;0.63;;;12.30;69.30;;;;;;4936055;29;20219;-71
2022/04/03 13:24:58;;;;;;;1.10;0.70;;;12.30;70.20;;;;;;4929771;29;20212;-69
2022/04/03 13:27:25;;;;;;;1.30;0.80;;;12.10;72.20;;;;;;4936636;29;20224;-71
2022/04/03 13:29:52;;;;;;;1.10;0.80;;;11.90;72.10;;;;;;4935313;29;20205;-69
2022/04/03 13:32:20;;;;;;;1.73;0.83;;;11.70;73.60;;;;;;4937057;29;20220;-69
2022/04/03 13:34:47;;;;;;;1.43;0.80;;;11.80;73.50;;;;;;4937264;29;20276;-69
2022/04/03 13:37:14;;;;;;;0.77;0.70;;;11.90;73.50;;;;;;4937816;29;20212;-68
2022/04/03 13:39:41;;;;;;;2.50;0.80;;;11.90;73.20;;;;;;4937681;29;20205;-69
2022/04/03 13:42:10;;;;;;;1.00;0.90;;;11.90;74.20;;;;;;4937162;29;20204;-69
2022/04/03 13:44:38;;;;;;;0.80;0.80;;;11.90;75.10;;;;;;4937740;29;20264;-70
2022/04/03 13:47:06;;;;;;;1.13;1.00;;;11.80;74.20;;;;;;4934197;29;20213;-71
2022/04/03 13:49:34;;;;;;;1.43;0.80;;;11.70;75.40;;;;;;4934505;29;20213;-69
2022/04/03 13:52:01;;;;;;;1.67;0.90;;;11.70;75.80;;;;;;4934537;29;20202;-71
2022/04/03 13:54:28;;;;;;;1.03;0.80;;;11.60;75.60;;;;;;4936221;29;20764;-71
2022/04/03 13:56:55;;;;;;;1.47;0.87;;;11.50;77.40;;;;;;4934064;29;20208;-68
2022/04/03 13:59:22;;;;;;;0.70;0.70;;;11.20;77.10;;;;;;4918740;29;20205;-67
2022/04/03 14:01:49;;;;;;;1.17;0.90;;;11.20;77.40;;;;;;4918143;29;20238;-69
2022/04/03 14:04:15;;;;;;;2.20;0.80;;;11.20;78.00;;;;;;4918465;29;20651;-68
2022/04/03 14:06:44;;;;;;;2.97;1.10;;;11.30;76.30;;;;;;4918332;29;20812;-69
2022/04/03 14:09:10;;;;;;;1.00;0.80;;;11.30;76.60;;;;;;4918457;29;20212;-69
2022/04/03 14:11:38;;;;;;;0.80;0.70;;;11.20;78.50;;;;;;4918643;29;20233;-68
2022/04/03 14:14:06;;;;;;;1.37;0.93;;;11.10;80.00;;;;;;4925344;29;20232;-70
2022/04/03 14:16:34;;;;;;;0.90;0.70;;;11.20;80.20;;;;;;4937516;29;20287;-69
2022/04/03 14:19:02;;;;;;;1.73;1.03;;;11.30;80.40;;;;;;4928332;29;20198;-69
2022/04/03 14:21:29;;;;;;;1.37;0.70;;;11.40;81.10;;;;;;4917298;29;20325;-69
2022/04/03 14:23:57;;;;;;;1.10;0.90;;;11.50;79.40;;;;;;4917974;29;20209;-70
2022/04/03 14:26:24;;;;;;;2.57;0.80;;;11.50;80.80;;;;;;4918265;29;20212;-70
2022/04/03 14:28:51;;;;;;;1.20;0.73;;;11.70;79.70;;;;;;4918454;29;20619;-70
2022/04/03 14:31:18;;;;;;;3.37;0.70;;;11.80;79.80;;;;;;4935755;29;20259;-69
2022/04/03 14:33:45;;;;;;;1.37;0.80;;;11.70;79.30;;;;;;4937257;29;20713;-69
2022/04/03 14:36:14;;;;;;;1.67;0.63;;;11.70;80.60;;;;;;4936288;29;20208;-69
2022/04/03 14:38:40;;;;;;;0.70;0.70;;;11.60;80.40;;;;;;4932501;29;20201;-68
2022/04/03 14:41:09;;;;;;;1.77;1.43;;;11.60;81.10;;;;;;4935995;29;20324;-69
2022/04/03 14:43:35;;;;;;;0.80;0.60;;;11.30;81.30;;;;;;4934403;29;20574;-69
2022/04/03 14:46:02;;;;;;;1.70;0.67;;;11.00;81.70;;;;;;4937217;29;20215;-69
2022/04/03 14:48:29;;;;;;;0.50;0.50;;;11.10;81.20;;;;;;4936017;29;20204;-69
2022/04/03 14:50:56;;;;;;;0.67;0.50;;;11.10;82.20;;;;;;4936713;29;20586;-68
2022/04/03 14:53:23;;;;;;;2.33;0.60;;;10.90;82.80;;;;;;4936705;29;20700;-68
2022/04/03 14:55:50;;;;;;;1.10;0.70;;;10.80;83.30;;;;;;4936927;29;20213;-69
2022/04/03 14:58:18;;;;;;;1.43;0.80;;;10.60;83.90;;;;;;4936756;29;20569;-69
2022/04/03 15:00:45;;;;;;;2.97;0.70;;;10.40;85.30;;;;;;4937217;29;20228;-69
2022/04/03 15:03:12;;;;;;;2.33;1.00;;;10.10;86.10;;;;;;4936997;29;20295;-69
2022/04/03 15:05:40;;;;;;;1.80;0.83;;;9.90;88.30;;;;;;4936581;29;20551;-68
2022/04/03 15:08:08;;;;;;;0.97;0.70;;;9.80;89.70;;;;;;4936745;29;20209;-69
2022/04/03 15:10:35;;;;;;;1.60;0.80;;;9.80;90.20;;;;;;4936653;29;20276;-69
2022/04/03 15:13:02;;;;;;;1.43;0.93;;;9.70;89.90;;;;;;4936293;29;20677;-67
2022/04/03 15:15:32;;;;;;;1.00;0.60;;;9.70;89.70;;;;;;4936507;29;20254;-69
2022/04/03 15:17:59;;;;;;;1.00;0.60;;;9.70;90.10;;;;;;4936555;29;20325;-69
2022/04/03 15:20:26;;;;;;;1.23;1.10;;;9.60;90.10;;;;;;4935605;29;20585;-69
2022/04/03 15:22:53;;;;;;;1.60;1.27;;;9.60;90.40;;;;;;4936427;29;20209;-70
2022/04/03 15:25:19;;;;;;;2.77;1.77;;;9.50;90.90;;;;;;4936239;29;20570;-70
2022/04/03 15:27:47;;;;;;;0.80;0.60;;;9.70;91.00;;;;;;4936353;29;20224;-70
2022/04/03 15:30:14;;;;;;;2.37;0.60;;;9.80;91.10;;;;;;4936675;29;20233;-69
2022/04/03 15:32:42;;;;;;;0.70;0.60;;;10.10;89.60;;;;;;4936558;29;20231;-70
2022/04/03 15:35:09;;;;;;;0.87;0.60;;;10.30;88.20;;;;;;4936094;29;20237;-70
2022/04/03 15:37:38;;;;;;;0.73;0.50;;;10.20;90.10;;;;;;4935624;29;20209;-70
2022/04/03 15:40:07;;;;;;;4.10;0.60;;;10.10;90.20;;;;;;4935955;29;20239;-69
2022/04/03 15:42:36;;;;;;;0.70;0.60;;;10.20;88.10;;;;;;4936149;29;20224;-69
2022/04/03 15:45:03;;;;;;;0.87;0.60;;;10.20;88.60;;;;;;4936469;29;20209;-69
2022/04/03 15:47:30;;;;;;;2.40;0.70;;;10.20;88.90;;;;;;4935963;29;20221;-70
2022/04/03 15:50:00;;;;;;;2.20;1.97;;;10.20;90.20;;;;;;4935509;29;20775;-70
2022/04/03 15:52:29;;;;;;;1.30;0.90;;;10.30;89.90;;;;;;4935981;29;20221;-70
2022/04/03 15:54:56;;;;;;;3.20;2.83;;;10.30;89.00;;;;;;4934644;29;20236;-70
2022/04/03 15:57:23;;;;;;;1.80;1.57;;;10.30;87.70;;;;;;4932320;29;20208;-70
2022/04/03 15:59:49;;;;;;;0.83;0.60;;;10.40;86.80;;;;;;4935786;29;20212;-69
2022/04/03 16:02:16;;;;;;;0.60;0.50;;;10.30;85.20;;;;;;4935709;29;20220;-69
2022/04/03 16:04:43;;;;;;;1.03;0.63;;;10.40;86.00;;;;;;4935424;29;20212;-70
2022/04/03 16:07:11;;;;;;;1.07;0.63;;;10.30;85.20;;;;;;4934632;29;20539;-70
2022/04/03 16:09:38;;;;;;;0.80;0.50;;;10.20;85.70;;;;;;4926770;29;20657;-69
2022/04/03 16:12:06;;;;;;;1.30;0.90;;;10.10;86.80;;;;;;4930418;29;20261;-69
2022/04/03 16:14:33;;;;;;;1.00;0.90;;;10.00;87.50;;;;;;4934465;29;20236;-69
2022/04/03 16:17:00;;;;;;;1.93;0.63;;;9.90;91.10;;;;;;4935083;29;20295;-69
2022/04/03 16:19:27;;;;;;;1.17;0.80;;;9.70;90.70;;;;;;4931594;29;20249;-69
2022/04/03 16:21:58;;;;;;;2.10;0.90;;;9.70;91.20;;;;;;4934276;29;20251;-70
2022/04/03 16:24:26;;;;;;;0.93;0.50;;;9.80;90.70;;;;;;4929911;29;20221;-70
2022/04/03 16:26:54;;;;;;;0.43;0.40;;;9.80;90.30;;;;;;4934738;29;20431;-72
2022/04/03 16:29:21;;;;;;;0.57;0.47;;;10.00;87.90;;;;;;4933360;29;20303;-71
2022/04/03 16:31:54;;;;;;;0.67;0.60;;;9.80;88.90;;;;;;4934486;29;20228;-71
2022/04/03 16:34:21;;;;;;;1.07;0.50;;;9.90;93.80;;;;;;4934533;29;20760;-70
2022/04/03 16:36:48;;;;;;;2.30;0.60;;;9.80;90.00;;;;;;4934671;29;20204;-70
2022/04/03 16:39:15;;;;;;;0.87;0.67;;;9.50;91.30;;;;;;4934255;29;20208;-70
2022/04/03 16:41:44;;;;;;;0.70;0.63;;;9.40;92.40;;;;;;4933945;29;20225;-70
2022/04/03 16:44:11;;;;;;;2.80;0.90;;;9.40;93.10;;;;;;4934852;29;20205;-69
2022/04/03 16:46:38;;;;;;;1.67;0.70;;;9.30;93.70;;;;;;4938298;29;20211;-69
2022/04/03 16:49:04;;;;;;;2.40;0.90;;;9.00;94.10;;;;;;4939071;29;20250;-70
2022/04/03 16:51:32;;;;;;;2.00;0.90;;;8.80;94.90;;;;;;4938604;29;20240;-70
2022/04/03 16:53:59;;;;;;;0.83;0.60;;;8.70;95.20;;;;;;4938005;29;20205;-70
2022/04/03 16:56:27;;;;;;;2.10;0.60;;;8.70;95.20;;;;;;4938636;29;20201;-70
2022/04/03 16:58:57;;;;;;;2.73;0.70;;;8.70;94.60;;;;;;4938848;29;20208;-70
2022/04/03 17:01:23;;;;;;;2.73;0.80;;;8.60;94.40;;;;;;4938706;29;20229;-70
2022/04/03 17:03:51;;;;;;;1.37;0.90;;;8.60;94.70;;;;;;4938788;29;20209;-70
2022/04/03 17:06:18;;;;;;;1.20;0.70;;;8.70;94.60;;;;;;4938239;29;20220;-69
2022/04/03 17:08:44;;;;;;;3.00;0.70;;;8.80;95.10;;;;;;4937867;29;20658;-70
2022/04/03 17:11:11;;;;;;;1.30;0.80;;;8.70;95.20;;;;;;4937729;29;20243;-69
2022/04/03 17:13:38;;;;;;;1.50;0.80;;;8.70;95.30;;;;;;4936891;29;20209;-69
2022/04/03 17:16:07;;;;;;;1.27;0.90;;;8.70;95.30;;;;;;4938280;29;20240;-70
2022/04/03 17:18:34;;;;;;;2.30;0.50;;;8.60;95.50;;;;;;4937494;29;20222;-70
2022/04/03 17:21:00;;;;;;;3.27;0.80;;;8.60;95.40;;;;;;4938202;29;20264;-70
2022/04/03 17:23:27;;;;;;;2.10;0.80;;;8.50;96.00;;;;;;4937409;29;20213;-70
2022/04/03 17:25:54;;;;;;;2.50;0.60;;;8.50;96.10;;;;;;4938352;29;20204;-70
2022/04/03 17:28:22;;;;;;;1.17;0.70;;;8.80;99.90;;;;;;4937521;29;20213;-70
2022/04/03 17:30:49;;;;;;;4.20;0.90;;;9.10;99.90;;;;;;4937769;29;20307;-70
2022/04/03 17:33:18;;;;;;;3.87;1.37;;;9.10;99.90;;;;;;4936835;29;20221;-70
2022/04/03 17:35:45;;;;;;;1.90;0.67;;;9.60;99.90;;;;;;4937475;29;20256;-70
2022/04/03 17:38:12;;;;;;;1.23;0.60;;;9.50;96.90;;;;;;4938017;29;20655;-70
2022/04/03 17:40:38;;;;;;;1.37;0.70;;;9.40;97.10;;;;;;4938194;29;20237;-70
2022/04/03 17:43:05;;;;;;;1.27;0.50;;;9.20;97.50;;;;;;4937476;29;20219;-70
2022/04/03 17:45:32;;;;;;;1.30;0.77;;;9.20;97.10;;;;;;4938083;29;20689;-69
2022/04/03 17:47:59;;;;;;;0.97;0.60;;;9.10;97.10;;;;;;4937435;29;20205;-70
2022/04/03 17:50:27;;;;;;;1.80;0.60;;;9.20;96.60;;;;;;4937576;29;20315;-69
2022/04/03 17:52:54;;;;;;;0.83;0.60;;;9.10;96.60;;;;;;4937537;29;20268;-70
2022/04/03 17:55:21;;;;;;;3.00;0.90;;;9.00;96.80;;;;;;4937219;29;20229;-70
2022/04/03 17:57:49;;;;;;;0.77;0.50;;;9.00;96.80;;;;;;4936339;29;20208;-70
2022/04/03 18:00:16;;;;;;;2.87;0.90;;;9.10;96.70;;;;;;4937478;29;20232;-70
2022/04/03 18:02:43;;;;;;;1.30;0.80;;;8.90;97.10;;;;;;4937477;29;20208;-70
2022/04/03 18:05:10;;;;;;;2.67;1.00;;;8.90;97.10;;;;;;4937216;29;20212;-69
2022/04/03 18:07:44;;;;;;;1.50;0.90;;;8.70;97.10;;;;;;4932232;29;20201;-70
2022/04/03 18:10:13;;;;;;;2.93;0.70;;;8.50;97.30;;;;;;4926673;29;20220;-70
2022/04/03 18:12:39;;;;;;;1.87;0.80;;;8.40;97.30;;;;;;4926080;29;20201;-70
2022/04/03 18:15:07;;;;;;;1.67;0.90;;;8.30;97.70;;;;;;4923347;29;20230;-69
2022/04/03 18:17:34;;;;;;;3.23;0.60;;;8.20;97.50;;;;;;4927593;29;20211;-70
2022/04/03 18:20:02;;;;;;;3.67;0.87;;;8.20;97.10;;;;;;4932762;29;20717;-70
2022/04/03 18:22:30;;;;;;;2.50;0.77;;;8.20;96.80;;;;;;4930581;29;20558;-68
2022/04/03 18:24:58;;;;;;;0.90;0.77;;;8.10;96.60;;;;;;4937203;29;20220;-70
2022/04/03 18:27:25;;;;;;;1.03;0.50;;;8.10;96.50;;;;;;4936784;29;20311;-70
2022/04/03 18:29:52;;;;;;;1.47;0.60;;;8.00;97.00;;;;;;4936603;29;20208;-70
2022/04/03 18:32:21;;;;;;;1.13;0.67;;;8.00;96.70;;;;;;4936304;29;20562;-70
2022/04/03 18:34:49;;;;;;;1.70;0.80;;;8.00;96.70;;;;;;4936454;29;20228;-70
2022/04/03 18:37:16;;;;;;;5.57;1.10;;;8.00;97.10;;;;;;4935590;29;20213;-69
2022/04/03 18:39:45;;;;;;;0.93;0.70;;;8.00;97.20;;;;;;4936701;29;20674;-69
2022/04/03 18:42:14;;;;;;;1.87;0.97;;;8.00;97.60;;;;;;4936029;29;20539;-70
2022/04/03 18:44:41;;;;;;;1.37;0.80;;;7.90;97.90;;;;;;4936599;29;20204;-69
2022/04/03 18:47:10;;;;;;;0.93;0.60;;;7.80;97.90;;;;;;4936585;29;20217;-70
2022/04/03 18:49:37;;;;;;;2.20;0.60;;;7.60;98.00;;;;;;4935789;29;20212;-70
2022/04/03 18:52:04;;;;;;;2.97;0.80;;;7.60;98.00;;;;;;4936117;29;20216;-69
2022/04/03 18:54:31;;;;;;;1.03;0.70;;;7.60;97.90;;;;;;4936160;29;20209;-70
2022/04/03 18:56:58;;;;;;;0.80;0.60;;;7.70;97.70;;;;;;4936399;29;20236;-69
2022/04/03 18:59:27;;;;;;;1.97;0.90;;;7.70;97.70;;;;;;4930547;29;20202;-68
2022/04/03 19:01:56;;;;;;;1.93;0.90;;;7.60;97.80;;;;;;4936209;29;20221;-67
2022/04/03 19:04:23;;;;;;;2.00;1.23;;;7.60;98.00;;;;;;4925140;29;20722;-67
2022/04/03 19:06:52;;;;;;;5.73;1.30;;;7.40;98.50;;;;;;4929455;29;20213;-68
2022/04/03 19:09:19;;;;;;;3.43;1.47;;;7.20;99.10;;;;;;4931941;29;20205;-69
2022/04/03 19:11:46;;;;;;;4.50;1.63;;;7.10;99.40;;;;;;4935482;29;20240;-69
2022/04/03 19:14:16;;;;;;;3.60;1.80;;;7.00;99.50;;;;;;4934480;29;20582;-68
2022/04/03 19:16:44;;;;;;;2.23;1.17;;;6.90;99.80;;;;;;4933720;29;20870;-69
2022/04/03 19:19:12;;;;;;;2.40;1.40;;;6.80;99.90;;;;;;4934277;29;20662;-69
2022/04/03 19:21:39;;;;;;;1.70;0.93;;;6.70;99.90;;;;;;4936039;29;20229;-68
2022/04/03 19:24:08;;;;;;;1.57;0.90;;;6.70;99.90;;;;;;4935698;29;20215;-68
2022/04/03 19:26:35;;;;;;;2.93;1.30;;;6.60;99.90;;;;;;4934562;29;20304;-69
2022/04/03 19:29:02;;;;;;;2.03;1.00;;;6.50;99.90;;;;;;4935735;29;20209;-70
2022/04/03 19:31:29;;;;;;;1.20;0.90;;;6.40;99.90;;;;;;4935181;29;20590;-69
2022/04/03 19:33:57;;;;;;;2.80;1.17;;;6.30;99.90;;;;;;4935631;29;20217;-69
2022/04/03 19:36:26;;;;;;;1.50;1.07;;;6.30;99.90;;;;;;4935618;29;20240;-69
2022/04/03 19:38:52;;;;;;;2.10;1.00;;;6.30;99.90;;;;;;4935954;29;20265;-69
2022/04/03 19:41:19;;;;;;;3.70;1.47;;;6.10;99.90;;;;;;4935305;29;20229;-70
2022/04/03 19:43:47;;;;;;;3.87;1.17;;;6.00;99.90;;;;;;4934798;29;20205;-69
2022/04/03 19:46:14;;;;;;;2.33;1.37;;;5.90;99.90;;;;;;4935995;29;20211;-69
2022/04/03 19:48:41;;;;;;;1.43;0.77;;;5.80;99.90;;;;;;4935673;29;20213;-69
2022/04/03 19:51:10;;;;;;;1.07;0.80;;;5.70;99.90;;;;;;4935346;29;20235;-70
2022/04/03 19:53:36;;;;;;;2.47;1.27;;;5.70;99.90;;;;;;4935431;29;20213;-69
2022/04/03 19:56:03;;;;;;;2.30;1.23;;;5.60;99.90;;;;;;4935376;29;20586;-70
2022/04/03 19:58:30;;;;;;;2.40;1.20;;;5.50;99.90;;;;;;4934990;29;20209;-68
2022/04/03 20:00:57;;;;;;;3.77;1.60;;;5.40;99.90;;;;;;4927773;29;20555;-68
2022/04/03 20:03:24;;;;;;;3.43;1.40;;;5.40;99.90;;;;;;4935340;29;20589;-71
2022/04/03 20:05:51;;;;;;;2.97;1.27;;;5.30;99.90;;;;;;4929887;29;20205;-68
2022/04/03 20:08:19;;;;;;;3.07;1.57;;;5.30;99.90;;;;;;4934315;29;20666;-68
2022/04/03 20:10:46;;;;;;;3.00;1.47;;;5.20;99.90;;;;;;4932607;29;20236;-68
2022/04/03 20:13:13;;;;;;;5.07;1.53;;;5.00;99.90;;;;;;4933805;29;20208;-69
2022/04/03 20:15:40;;;;;;;2.67;1.57;;;5.00;99.90;;;;;;4933424;29;20239;-68
2022/04/03 20:18:13;;;;;;;4.33;1.70;;;4.80;99.90;;;;;;4934639;29;20205;-69
2022/04/03 20:20:42;;;;;;;2.93;1.60;;;4.80;99.90;;;;;;4934142;29;20284;-69
2022/04/03 20:23:09;;;;;;;5.57;1.83;;;4.80;99.90;;;;;;4934947;29;20205;-69
2022/04/03 20:25:37;;;;;;;2.73;1.57;;;4.70;99.90;;;;;;4934208;29;20284;-68
2022/04/03 20:28:04;;;;;;;4.63;1.63;;;4.60;99.90;;;;;;4934904;29;20235;-69
2022/04/03 20:30:31;;;;;;;2.23;1.77;;;4.60;99.90;;;;;;4934349;29;20288;-69
2022/04/03 20:32:59;;;;;;;3.40;1.73;;;4.60;99.90;;;;;;4934637;29;20669;-68
2022/04/03 20:35:26;;;;;;;2.73;1.50;;;4.50;99.90;;;;;;4934162;29;20205;-69
2022/04/03 20:37:53;;;;;;;4.07;1.90;;;4.50;99.90;;;;;;4934926;29;20224;-69
2022/04/03 20:40:20;;;;;;;4.47;1.90;;;4.40;99.90;;;;;;4934397;29;20601;-69
2022/04/03 20:42:48;;;;;;;4.03;1.83;;;4.20;99.90;;;;;;4934961;29;20217;-71
2022/04/03 20:45:15;;;;;;;5.63;2.33;;;4.20;99.90;;;;;;4934893;29;20209;-70
2022/04/03 20:47:42;;;;;;;5.97;2.07;;;4.10;99.90;;;;;;4921877;29;20218;-68
2022/04/03 20:50:10;;;;;;;6.43;2.00;;;4.10;99.90;;;;;;4927924;29;20225;-70
2022/04/03 20:52:37;;;;;;;6.20;2.40;;;4.00;99.90;;;;;;4924172;29;20682;-69
2022/04/03 20:55:05;;;;;;;3.87;2.20;;;3.90;99.90;;;;;;4924562;29;20207;-69
2022/04/03 20:57:31;;;;;;;3.60;2.37;;;3.80;99.90;;;;;;4921623;29;20243;-69
2022/04/03 21:00:00;;;;;;;4.67;2.37;;;3.90;99.90;;;;;;4918972;29;20236;-69
2022/04/03 21:02:26;;;;;;;5.23;2.67;;;3.90;99.90;;;;;;4934691;29;20705;-69
2022/04/03 21:04:53;;;;;;;4.90;2.97;;;3.90;99.90;;;;;;4932839;29;20566;-69
2022/04/03 21:07:20;;;;;;;4.83;2.70;;;3.80;99.90;;;;;;4934012;29;20562;-69
2022/04/03 21:09:47;;;;;;;6.43;2.73;;;3.70;99.90;;;;;;4934514;29;20219;-68
2022/04/03 21:12:13;;;;;;;6.87;3.00;;;3.60;99.90;;;;;;4934587;29;20220;-68
2022/04/03 21:14:40;;;;;;;5.57;3.10;;;3.60;99.90;;;;;;4934700;29;20213;-69
2022/04/03 21:17:10;;;;;;;5.70;2.50;;;3.50;99.90;;;;;;4934309;29;20241;-69
2022/04/03 21:19:37;;;;;;;4.63;2.53;;;3.40;99.90;;;;;;4933875;29;20213;-69
2022/04/03 21:22:05;;;;;;;3.90;2.50;;;3.30;99.90;;;;;;4934736;29;20213;-68
2022/04/03 21:24:31;;;;;;;6.40;2.33;;;3.30;99.90;;;;;;4934500;29;20216;-69
2022/04/03 21:26:58;;;;;;;5.07;2.80;;;3.30;99.90;;;;;;4934854;29;20217;-69
2022/04/03 21:29:25;;;;;;;8.73;2.97;;;3.30;99.90;;;;;;4934497;29;20219;-68
2022/04/03 21:31:52;;;;;;;6.20;3.33;;;3.30;99.90;;;;;;4937431;29;20224;-69
2022/04/03 21:34:20;;;;;;;4.33;2.67;;;3.30;99.90;;;;;;4933352;29;20227;-69